Time,TemperatureF,DewpointF,PressureIn,WindDirection,WindDirectionDegrees,WindSpeedMPH,WindSpeedGustMPH,Humidity,HourlyPrecipIn,Conditions,Clouds,dailyrainin,SoftwareType,DateUTC
2013-03-27 00:05:00,43.9,28.0,29.96,WNW,285,14.0,-999.0,54,-99.99,,,0.09,weatherlink.com 1.10,2013-03-27 04:05:00,
2013-03-27 00:20:00,43.8,28.0,29.97,WNW,298,5.0,-999.0,54,-99.99,,,0.09,weatherlink.com 1.10,2013-03-27 04:20:00,
2013-03-27 00:35:00,43.6,28.0,29.97,NNW,340,0.0,-999.0,55,-99.99,,,0.09,weatherlink.com 1.10,2013-03-27 04:35:00,
2013-03-27 00:50:00,43.2,28.0,29.97,WNW,298,2.0,-999.0,56,-99.99,,,0.09,weatherlink.com 1.10,2013-03-27 04:50:00,
2013-03-27 01:05:00,42.9,28.0,29.97,NW,312,3.0,-999.0,57,-99.99,,,0.09,weatherlink.com 1.10,2013-03-27 05:05:00,
2013-03-27 01:20:00,42.8,29.0,29.97,WNW,290,2.0,-999.0,59,-99.99,,,0.00,weatherlink.com 1.10,2013-03-27 05:20:00,
2013-03-27 01:35:00,42.3,29.0,29.98,North,358,4.0,-999.0,60,-99.99,,,0.00,weatherlink.com 1.10,2013-03-27 05:35:00,
2013-03-27 01:50:00,42.1,29.0,29.98,WNW,293,3.0,-999.0,61,-99.99,,,0.00,weatherlink.com 1.10,2013-03-27 05:50:00,
2013-03-27 02:05:00,41.8,29.0,29.97,NW,325,1.0,-999.0,61,-99.99,,,0.00,weatherlink.com 1.10,2013-03-27 06:05:00,
2013-03-27 02:20:00,41.5,29.0,29.97,WNW,290,0.0,-999.0,62,-99.99,,,0.00,weatherlink.com 1.10,2013-03-27 06:20:00,
2013-03-27 02:35:00,40.9,29.0,29.97,West,278,2.0,-999.0,63,-99.99,,,0.00,weatherlink.com 1.10,2013-03-27 06:35:00,
2013-03-27 02:50:00,40.6,29.0,29.97,WNW,301,3.0,-999.0,64,-99.99,,,0.00,weatherlink.com 1.10,2013-03-27 06:50:00,
2013-03-27 03:05:00,40.3,29.0,29.97,WNW,301,4.0,-999.0,65,-99.99,,,0.00,weatherlink.com 1.10,2013-03-27 07:05:00,
2013-03-27 03:20:00,39.9,29.0,29.97,WNW,282,1.0,-999.0,66,-99.99,,,0.00,weatherlink.com 1.10,2013-03-27 07:20:00,
2013-03-27 03:35:00,39.8,29.0,29.97,West,279,5.0,-999.0,66,-99.99,,,0.00,weatherlink.com 1.10,2013-03-27 07:35:00,
2013-03-27 03:50:00,39.6,29.0,29.97,NW,306,3.0,-999.0,67,-99.99,,,0.00,weatherlink.com 1.10,2013-03-27 07:50:00,
2013-03-27 04:05:00,39.6,29.0,29.97,NNW,327,5.0,-999.0,67,-99.99,,,0.00,weatherlink.com 1.10,2013-03-27 08:05:00,
2013-03-27 04:20:00,39.5,29.0,29.98,NW,312,1.0,-999.0,67,-99.99,,,0.00,weatherlink.com 1.10,2013-03-27 08:20:00,
2013-03-27 04:35:00,39.6,29.0,29.98,West,259,6.0,-999.0,67,-99.99,,,0.00,weatherlink.com 1.10,2013-03-27 08:35:00,
2013-03-27 04:50:00,39.6,29.0,29.98,WNW,286,2.0,-999.0,67,-99.99,,,0.00,weatherlink.com 1.10,2013-03-27 08:50:00,
2013-03-27 05:05:00,39.6,29.0,29.98,WNW,290,4.0,-999.0,67,-99.99,,,0.00,weatherlink.com 1.10,2013-03-27 09:05:00,
2013-03-27 05:20:00,39.5,29.0,29.99,WNW,283,2.0,-999.0,66,-99.99,,,0.00,weatherlink.com 1.10,2013-03-27 09:20:00,
2013-03-27 05:35:00,39.3,29.0,29.99,WNW,303,4.0,-999.0,66,-99.99,,,0.00,weatherlink.com 1.10,2013-03-27 09:35:00,
2013-03-27 05:50:00,39.1,29.0,29.99,NNW,339,4.0,-999.0,67,-99.99,,,0.00,weatherlink.com 1.10,2013-03-27 09:50:00,
2013-03-27 06:05:00,38.9,29.0,29.99,West,273,8.0,-999.0,67,-99.99,,,0.00,weatherlink.com 1.10,2013-03-27 10:05:00,
2013-03-27 06:20:00,38.5,29.0,30.00,West,274,2.0,-999.0,68,-99.99,,,0.00,weatherlink.com 1.10,2013-03-27 10:20:00,
2013-03-27 06:35:00,38.5,29.0,30.00,WNW,283,9.0,-999.0,68,-99.99,,,0.00,weatherlink.com 1.10,2013-03-27 10:35:00,
2013-03-27 06:50:00,38.3,29.0,30.01,WNW,293,6.0,-999.0,68,-99.99,,,0.00,weatherlink.com 1.10,2013-03-27 10:50:00,
2013-03-27 07:05:00,38.3,29.0,30.01,West,267,5.0,-999.0,68,-99.99,,,0.00,weatherlink.com 1.10,2013-03-27 11:05:00,
2013-03-27 07:20:00,38.0,29.0,30.02,NW,307,6.0,-999.0,69,-99.99,,,0.00,weatherlink.com 1.10,2013-03-27 11:20:00,
2013-03-27 07:35:00,38.0,28.0,30.02,West,278,3.0,-999.0,68,-99.99,,,0.00,weatherlink.com 1.10,2013-03-27 11:35:00,
2013-03-27 07:50:00,38.2,28.0,30.02,WNW,283,5.0,-999.0,68,-99.99,,,0.00,weatherlink.com 1.10,2013-03-27 11:50:00,
2013-03-27 08:05:00,38.5,29.0,30.03,WNW,293,4.0,-999.0,68,-99.99,,,0.00,weatherlink.com 1.10,2013-03-27 12:05:00,
2013-03-27 08:20:00,38.6,29.0,30.04,WSW,257,1.0,-999.0,68,-99.99,,,0.00,weatherlink.com 1.10,2013-03-27 12:20:00,
2013-03-27 08:35:00,39.6,29.0,30.04,West,265,5.0,-999.0,67,-99.99,,,0.00,weatherlink.com 1.10,2013-03-27 12:35:00,
2013-03-27 08:50:00,40.3,29.0,30.04,West,276,12.0,-999.0,65,-99.99,,,0.00,weatherlink.com 1.10,2013-03-27 12:50:00,
2013-03-27 09:05:00,41.2,29.0,30.04,WNW,283,10.0,-999.0,62,-99.99,,,0.00,weatherlink.com 1.10,2013-03-27 13:05:00,
2013-03-27 09:20:00,42.1,29.0,30.05,WNW,294,10.0,-999.0,61,-99.99,,,0.00,weatherlink.com 1.10,2013-03-27 13:20:00,
2013-03-27 09:35:00,42.9,29.0,30.05,WNW,302,11.0,-999.0,59,-99.99,,,0.00,weatherlink.com 1.10,2013-03-27 13:35:00,
2013-03-27 09:50:00,43.6,29.0,30.05,NW,318,11.0,-999.0,57,-99.99,,,0.00,weatherlink.com 1.10,2013-03-27 13:50:00,
2013-03-27 10:05:00,44.6,30.0,30.05,West,281,10.0,-999.0,56,-99.99,,,0.00,weatherlink.com 1.10,2013-03-27 14:05:00,
2013-03-27 10:20:00,44.8,28.0,30.05,NW,323,4.0,-999.0,52,-99.99,,,0.00,weatherlink.com 1.10,2013-03-27 14:20:00,
2013-03-27 10:35:00,45.4,29.0,30.05,WNW,287,4.0,-999.0,52,-99.99,,,0.00,weatherlink.com 1.10,2013-03-27 14:35:00,
2013-03-27 10:50:00,45.4,29.0,30.05,North,358,2.0,-999.0,52,-99.99,,,0.00,weatherlink.com 1.10,2013-03-27 14:50:00,
2013-03-27 11:05:00,45.5,29.0,30.05,NNW,331,4.0,-999.0,52,-99.99,,,0.00,weatherlink.com 1.10,2013-03-27 15:05:00,
2013-03-27 11:20:00,46.5,29.0,30.05,West,275,6.0,-999.0,50,-99.99,,,0.00,weatherlink.com 1.10,2013-03-27 15:20:00,
2013-03-27 11:35:00,47.3,29.0,30.05,NE,50,6.0,-999.0,49,-99.99,,,0.00,weatherlink.com 1.10,2013-03-27 15:35:00,
2013-03-27 11:50:00,47.6,29.0,30.04,West,271,6.0,-999.0,49,-99.99,,,0.00,weatherlink.com 1.10,2013-03-27 15:50:00,
2013-03-27 12:05:00,47.1,28.0,30.05,West,280,3.0,-999.0,48,-99.99,,,0.00,weatherlink.com 1.10,2013-03-27 16:05:00,
2013-03-27 12:20:00,48.3,29.0,30.05,NW,326,13.0,-999.0,47,-99.99,,,0.00,weatherlink.com 1.10,2013-03-27 16:20:00,
2013-03-27 12:35:00,47.3,29.0,30.05,WNW,293,6.0,-999.0,49,-99.99,,,0.00,weatherlink.com 1.10,2013-03-27 16:35:00,
2013-03-27 12:50:00,47.6,28.0,30.04,North,356,5.0,-999.0,47,-99.99,,,0.00,weatherlink.com 1.10,2013-03-27 16:50:00,
2013-03-27 13:05:00,48.3,29.0,30.04,WNW,293,0.0,-999.0,48,-99.99,,,0.00,weatherlink.com 1.10,2013-03-27 17:05:00,
2013-03-27 13:20:00,47.6,27.0,30.04,WNW,286,6.0,-999.0,45,-99.99,,,0.00,weatherlink.com 1.10,2013-03-27 17:20:00,
2013-03-27 13:35:00,48.3,28.0,30.04,NNW,338,5.0,-999.0,45,-99.99,,,0.00,weatherlink.com 1.10,2013-03-27 17:35:00,
2013-03-27 13:50:00,47.6,28.0,30.03,NNW,336,5.0,-999.0,46,-99.99,,,0.00,weatherlink.com 1.10,2013-03-27 17:50:00,
2013-03-27 14:05:00,48.5,28.0,30.03,North,359,8.0,-999.0,45,-99.99,,,0.00,weatherlink.com 1.10,2013-03-27 18:05:00,
2013-03-27 14:20:00,49.1,27.0,30.02,WNW,290,8.0,-999.0,42,-99.99,,,0.00,weatherlink.com 1.10,2013-03-27 18:20:00,
2013-03-27 14:35:00,49.8,27.0,30.02,NW,323,17.0,-999.0,42,-99.99,,,0.00,weatherlink.com 1.10,2013-03-27 18:35:00,
2013-03-27 14:50:00,47.9,29.0,30.01,NNW,329,13.0,-999.0,49,-99.99,,,0.00,weatherlink.com 1.10,2013-03-27 18:50:00,
2013-03-27 15:20:00,47.9,31.0,30.02,NNW,333,9.0,-999.0,53,-99.99,,,0.00,weatherlink.com 1.10,2013-03-27 19:20:00,
2013-03-27 15:35:00,47.9,30.0,30.02,WSW,250,6.0,-999.0,51,-99.99,,,0.00,weatherlink.com 1.10,2013-03-27 19:35:00,
2013-03-27 15:50:00,43.9,30.0,30.03,WNW,301,4.0,-999.0,58,-99.99,,,0.00,weatherlink.com 1.10,2013-03-27 19:50:00,
2013-03-27 16:05:00,46.1,31.0,30.03,WSW,254,5.0,-999.0,56,-99.99,,,0.00,weatherlink.com 1.10,2013-03-27 20:05:00,
2013-03-27 16:20:00,43.5,31.0,30.03,NW,307,12.0,-999.0,62,-99.99,,,0.00,weatherlink.com 1.10,2013-03-27 20:20:00,
2013-03-27 16:35:00,45.1,29.0,30.03,West,278,6.0,-999.0,54,-99.99,,,0.00,weatherlink.com 1.10,2013-03-27 20:35:00,
2013-03-27 16:50:00,46.5,31.0,30.02,WSW,240,7.0,-999.0,56,-99.99,,,0.00,weatherlink.com 1.10,2013-03-27 20:50:00,
2013-03-27 17:05:00,47.0,29.0,30.02,NNW,327,5.0,-999.0,49,-99.99,,,0.00,weatherlink.com 1.10,2013-03-27 21:05:00,
2013-03-27 17:20:00,47.3,29.0,30.02,NE,34,9.0,-999.0,50,-99.99,,,0.00,weatherlink.com 1.10,2013-03-27 21:20:00,
2013-03-27 17:35:00,44.6,27.0,30.04,NNW,339,3.0,-999.0,51,-99.99,,,0.00,weatherlink.com 1.10,2013-03-27 21:35:00,
2013-03-27 17:50:00,44.9,29.0,30.04,NW,321,13.0,-999.0,53,-99.99,,,0.00,weatherlink.com 1.10,2013-03-27 21:50:00,
2013-03-27 18:05:00,45.4,29.0,30.04,West,266,5.0,-999.0,52,-99.99,,,0.00,weatherlink.com 1.10,2013-03-27 22:05:00,
2013-03-27 18:20:00,46.1,28.0,30.04,NW,323,13.0,-999.0,50,-99.99,,,0.00,weatherlink.com 1.10,2013-03-27 22:20:00,
2013-03-27 18:35:00,46.2,28.0,30.04,NW,310,2.0,-999.0,49,-99.99,,,0.00,weatherlink.com 1.10,2013-03-27 22:35:00,
2013-03-27 18:50:00,46.5,27.0,30.05,North,359,7.0,-999.0,46,-99.99,,,0.00,weatherlink.com 1.10,2013-03-27 22:50:00,
2013-03-27 19:05:00,46.5,25.0,30.05,NW,304,11.0,-999.0,43,-99.99,,,0.00,weatherlink.com 1.10,2013-03-27 23:05:00,
2013-03-27 19:20:00,46.2,24.0,30.05,WNW,295,6.0,-999.0,41,-99.99,,,0.00,weatherlink.com 1.10,2013-03-27 23:20:00,
2013-03-27 19:35:00,45.7,23.0,30.06,NW,316,11.0,-999.0,41,-99.99,,,0.00,weatherlink.com 1.10,2013-03-27 23:35:00,
2013-03-27 19:50:00,45.1,24.0,30.07,WNW,293,5.0,-999.0,43,-99.99,,,0.00,weatherlink.com 1.10,2013-03-27 23:50:00,
2013-03-27 20:05:00,44.6,24.0,30.07,WNW,297,0.0,-999.0,44,-99.99,,,0.00,weatherlink.com 1.10,2013-03-28 00:05:00,
2013-03-27 20:20:00,44.2,24.0,30.07,WNW,300,2.0,-999.0,45,-99.99,,,0.00,weatherlink.com 1.10,2013-03-28 00:20:00,
2013-03-27 20:35:00,43.9,24.0,30.07,NW,319,8.0,-999.0,46,-99.99,,,0.00,weatherlink.com 1.10,2013-03-28 00:35:00,
2013-03-27 20:50:00,43.6,24.0,30.08,West,269,4.0,-999.0,47,-99.99,,,0.00,weatherlink.com 1.10,2013-03-28 00:50:00,
2013-03-27 21:05:00,43.1,25.0,30.08,West,281,0.0,-999.0,50,-99.99,,,0.00,weatherlink.com 1.10,2013-03-28 01:05:00,
2013-03-27 21:20:00,42.9,26.0,30.09,WNW,303,3.0,-999.0,51,-99.99,,,0.00,weatherlink.com 1.10,2013-03-28 01:20:00,
2013-03-27 21:35:00,42.5,26.0,30.09,WNW,293,3.0,-999.0,53,-99.99,,,0.00,weatherlink.com 1.10,2013-03-28 01:35:00,
2013-03-27 21:50:00,42.2,27.0,30.09,NW,305,3.0,-999.0,55,-99.99,,,0.00,weatherlink.com 1.10,2013-03-28 01:50:00,
2013-03-27 22:05:00,41.8,27.0,30.10,NW,306,3.0,-999.0,56,-99.99,,,0.00,weatherlink.com 1.10,2013-03-28 02:05:00,
2013-03-27 22:20:00,41.6,26.0,30.10,West,276,5.0,-999.0,55,-99.99,,,0.00,weatherlink.com 1.10,2013-03-28 02:20:00,
2013-03-27 22:35:00,41.3,26.0,30.10,WNW,283,5.0,-999.0,56,-99.99,,,0.00,weatherlink.com 1.10,2013-03-28 02:35:00,
2013-03-27 22:50:00,41.3,26.0,30.10,West,271,5.0,-999.0,56,-99.99,,,0.00,weatherlink.com 1.10,2013-03-28 02:50:00,
2013-03-27 23:05:00,41.1,26.0,30.10,NNW,331,0.0,-999.0,56,-99.99,,,0.00,weatherlink.com 1.10,2013-03-28 03:05:00,
2013-03-27 23:20:00,40.6,26.0,30.10,NW,310,3.0,-999.0,57,-99.99,,,0.00,weatherlink.com 1.10,2013-03-28 03:20:00,
2013-03-27 23:35:00,40.5,27.0,30.10,WNW,303,3.0,-999.0,58,-99.99,,,0.00,weatherlink.com 1.10,2013-03-28 03:35:00,
2013-03-27 23:50:00,40.5,27.0,30.10,NW,315,0.0,-999.0,58,-99.99,,,0.00,weatherlink.com 1.10,2013-03-28 03:50:00,